KRDG

Reading Regional / Carl A Spaatz Field Airport

Reading, Pennsylvania, USA
KRDG 232327Z 2400/2424 33010KT P6SM SCT150 FM241500 32011G22KT P6SM SCT050 FM242300 32012KT P6SM FEW110
Issued Valid From Valid To
Oct-23 @ 23:27 UTC
(6 hours ago)
Oct-24 @ 00:00 UTC
(5 hours ago)
Oct-25 @ 00:00 UTC
(in 19 hours)
Oct-24 @ 00:00 to Oct-24 @ 15:00
KRDG 232327Z 2400/2424 33010KT P6SM SCT150
Wind Visibility Clouds
330° at 10 knots Greater than 6 miles
  • Scattered at 15,000' AGL
From Oct-24 @ 15:00 to Oct-24 @ 23:00
FM241500 32011G22KT P6SM SCT050
Wind Visibility Clouds
320° at 11 knots
 Gusting to 22 knots
Greater than 6 miles
  • Scattered at 5,000' AGL
From Oct-24 @ 23:00 to Oct-25 @ 00:00
FM242300 32012KT P6SM FEW110
Wind Visibility Clouds
320° at 12 knots Greater than 6 miles
  • Few at 11,000' AGL
KRDG 232327Z 2400/2424 33010KT P6SM SCT150 FM241500 32011G22KT P6SM SCT050 FM242300 32012KT P6SM FEW110
Issued Oct-23 @ 23:27 UTC
(6 hours ago)
Valid From Oct-24 @ 00:00 UTC
(5 hours ago)
Valid To Oct-25 @ 00:00 UTC
(in 19 hours)
Oct-24 @ 00:00 - Oct-24 @ 15:00
Wind Visibility
330° at 10 knots Greater than 6 miles
Clouds
  • Scattered at 15,000' AGL
From Oct-24 @ 15:00 - Oct-24 @ 23:00
Wind Visibility
320° at 11 knots
 Gusting to 22 knots
Greater than 6 miles
Clouds
  • Scattered at 5,000' AGL
From Oct-24 @ 23:00 - Oct-25 @ 00:00
Wind Visibility
320° at 12 knots Greater than 6 miles
Clouds
  • Few at 11,000' AGL